Saint Charles — WDF2626 — position and weather

sailwx.info

Track history (hours):
 
Tides and Currents Weather Stations Pressure Air Temp Water Temp Dewpoint Dewpoint Depression Visibility Wind Speed Wind Dir Waves Ship Positions

Saint Charles

Owner: Higman Barge Lines, Inc, Orange, TX. More information available from US FCC via Universal Licensing System and Coast Guard Vessel Documentation Center.

Last reported at 2018-Jun-18 12:59 UTC. Time now 2018-Jun-18 12:59 UTC.
Position N 31°59' W 091°06'.

Length 205 m; draft 2.6 m.

Type: . MMSI: 367430030.

Date/timePositionNaut miles runAvg speedWind from/ knotsBaromVisibWave heightAir tempDewpointWater temp
2018-Jun-18 12:59N 31°59' W 091°06'4 8.8
2018-Jun-18 12:30N 32°03' W 091°03'4 8.9
2018-Jun-18 12:00N 32°07' W 091°06'4 6.7
2018-Jun-18 11:29N 32°07' W 091°02'4 8.4
2018-Jun-18 11:00N 32°11' W 090°60'5 9.4
2018-Jun-18 10:30N 32°15' W 090°59'5 9.3
2018-Jun-18 10:00N 32°18' W 090°55'3 5.4
2018-Jun-18 09:30N 32°21' W 090°56'4 7.4
2018-Jun-18 09:00N 32°23' W 090°60'4 7.5
2018-Jun-18 08:30N 32°26' W 091°02'4 8.8
2018-Jun-18 08:00N 32°29' W 091°07'5 9.3
2018-Jun-18 07:30N 32°33' W 091°06'5 9.2
2018-Jun-18 07:00N 32°37' W 091°09'  
2018-Jun-11 14:45N 29°58' W 093°52'0 0.0
2018-Jun-11 14:30N 29°58' W 093°52'  
Track history (hours):
 
Tides and Currents Weather Stations Pressure Air Temp Water Temp Dewpoint Dewpoint Depression Visibility Wind Speed Wind Dir Waves Ship Positions

Saint Charles

Owner: Higman Barge Lines, Inc, Orange, TX. More information available from US FCC via Universal Licensing System and Coast Guard Vessel Documentation Center.

Last reported at 2018-Jun-18 12:59 UTC. Time now 2018-Jun-18 12:59 UTC.
Position N 31°59' W 091°06'.

Length 205 m; draft 2.6 m.

Type: . MMSI: 367430030.

Date/timePositionNaut miles runAvg speedWind from/ knotsBaromVisibWave heightAir tempDewpointWater temp
2018-Jun-18 12:59N 31°59' W 091°06'4 8.8
2018-Jun-18 12:30N 32°03' W 091°03'4 8.9
2018-Jun-18 12:00N 32°07' W 091°06'4 6.7
2018-Jun-18 11:29N 32°07' W 091°02'4 8.4
2018-Jun-18 11:00N 32°11' W 090°60'5 9.4
2018-Jun-18 10:30N 32°15' W 090°59'5 9.3
2018-Jun-18 10:00N 32°18' W 090°55'3 5.4
2018-Jun-18 09:30N 32°21' W 090°56'4 7.4
2018-Jun-18 09:00N 32°23' W 090°60'4 7.5
2018-Jun-18 08:30N 32°26' W 091°02'4 8.8
2018-Jun-18 08:00N 32°29' W 091°07'5 9.3
2018-Jun-18 07:30N 32°33' W 091°06'5 9.2
2018-Jun-18 07:00N 32°37' W 091°09'  
2018-Jun-11 14:45N 29°58' W 093°52'0 0.0
2018-Jun-11 14:30N 29°58' W 093°52'  

Dump ship's entire track history